Time;durP1;ratioP1;P1;durP2;ratioP2;P2;SDS_P1;SDS_P2;PMS_P1;PMS_P2;Temp;Humidity;BMP_temperature;BMP_pressure;BME280_temperature;BME280_humidity;BME280_pressure;Samples;Min_cycle;Max_cycle;Signal;HPM_P1;HPM_P2
2023/06/16 00:00:13;;;;;;;29.65;21.10;;;;;;;30.06;69.72;100728.06;5059058;28;66013;-43
2023/06/16 00:02:45;;;;;;;41.17;21.35;;;;;;;29.89;69.65;100694.50;5054442;28;70328;-40
2023/06/16 00:05:17;;;;;;;37.63;21.60;;;;;;;29.87;69.66;100692.03;5036470;28;66366;-41
2023/06/16 00:07:48;;;;;;;38.08;22.20;;;;;;;30.26;70.34;100745.03;5053286;28;70693;-43
2023/06/16 00:10:20;;;;;;;36.83;21.52;;;;;;;30.12;70.35;100711.00;5057009;28;66209;-43
2023/06/16 00:12:51;;;;;;;37.05;19.20;;;;;;;30.25;70.81;100727.13;5064722;28;69831;-43
2023/06/16 00:15:24;;;;;;;34.00;19.35;;;;;;;30.36;70.84;100749.13;5053753;28;66122;-43
2023/06/16 00:17:56;;;;;;;23.17;17.88;;;;;;;30.39;71.26;100754.09;5057832;28;69870;-42
2023/06/16 00:20:29;;;;;;;24.13;17.40;;;;;;;30.28;71.53;100739.41;5053680;28;65585;-41
2023/06/16 00:23:01;;;;;;;26.45;17.02;;;;;;;30.46;71.71;100765.72;5057314;28;70319;-42
2023/06/16 00:25:32;;;;;;;26.00;16.70;;;;;;;30.49;71.91;100754.44;5051036;28;65425;-42
2023/06/16 00:28:03;;;;;;;19.00;15.53;;;;;;;30.44;72.15;100752.38;5052502;28;70487;-42
2023/06/16 00:30:34;;;;;;;16.50;14.38;;;;;;;30.44;72.11;100746.97;5058899;28;66347;-41
2023/06/16 00:33:09;;;;;;;16.23;14.07;;;;;;;30.59;71.99;100760.19;5038433;28;70509;-41
2023/06/16 00:35:44;;;;;;;17.27;13.63;;;;;;;30.42;71.91;100726.59;5056189;28;66681;-41
2023/06/16 00:38:15;;;;;;;14.70;12.88;;;;;;;30.65;72.14;100762.00;5055098;28;70457;-41
2023/06/16 00:40:47;;;;;;;19.90;12.38;;;;;;;30.66;72.37;100760.13;5065879;28;65469;-40
2023/06/16 00:43:18;;;;;;;13.23;11.90;;;;;;;30.70;72.13;100751.34;5058015;28;70360;-40
2023/06/16 00:45:52;;;;;;;11.43;10.20;;;;;;;30.67;69.58;100746.38;5062092;28;65525;-43
2023/06/16 00:48:23;;;;;;;10.15;9.35;;;;;;;30.48;68.39;100713.03;5053654;28;68823;-42
2023/06/16 00:50:55;;;;;;;10.15;9.25;;;;;;;30.77;68.13;100772.13;5056081;28;66053;-41
2023/06/16 00:53:26;;;;;;;9.10;8.50;;;;;;;30.79;67.91;100765.44;5060117;28;70964;-40
2023/06/16 00:55:59;;;;;;;9.90;9.02;;;;;;;30.17;67.51;100656.22;5053702;28;67496;-44
2023/06/16 00:58:31;;;;;;;9.77;8.70;;;;;;;30.18;67.18;100653.28;5041783;28;70511;-41
2023/06/16 01:01:03;;;;;;;9.27;8.48;;;;;;;30.90;67.56;100772.03;5060275;28;66503;-42
2023/06/16 01:03:35;;;;;;;9.18;8.15;;;;;;;30.77;67.23;100739.63;5059889;28;69295;-44
2023/06/16 01:06:25;;;;;;;9.45;8.45;;;;;;;30.94;66.91;100765.09;5058263;28;66904;-42
2023/06/16 01:09:09;;;;;;;7.97;7.47;;;;;;;30.82;66.71;100746.06;5059179;28;70614;-41
2023/06/16 01:12:11;;;;;;;8.63;7.97;;;;;;;30.52;67.27;100716.09;5057314;28;66094;-41
2023/06/16 01:15:00;;;;;;;;;;;;;;;30.69;67.98;100778.63;5034351;28;69916;-40
2023/06/16 01:17:44;;;;;;;8.63;7.93;;;;;;;30.09;66.69;100627.56;5059358;28;65384;-39
2023/06/16 01:20:24;;;;;;;8.60;8.05;;;;;;;30.33;66.35;100652.16;5060278;28;69968;-41
2023/06/16 01:23:26;;;;;;;8.82;8.13;;;;;;;31.00;66.27;100771.50;5044900;28;66265;-42
2023/06/16 01:26:01;;;;;;;8.00;7.43;;;;;;;30.55;65.81;100682.34;5062651;28;70139;-38
2023/06/16 01:28:34;;;;;;;8.60;8.00;;;;;;;31.13;65.65;100785.75;5046565;28;65413;-41
2023/06/16 01:31:08;;;;;;;7.90;7.32;;;;;;;31.17;65.82;100783.41;5060593;28;69437;-40
2023/06/16 01:33:40;;;;;;;8.45;7.70;;;;;;;31.19;65.40;100780.50;5065432;28;66779;-41
2023/06/16 01:36:14;;;;;;;8.02;7.45;;;;;;;31.22;65.63;100791.69;5057586;28;70437;-42
2023/06/16 01:38:47;;;;;;;7.18;6.68;;;;;;;31.26;65.22;100789.34;5068727;28;67024;-41
2023/06/16 01:41:19;;;;;;;7.00;6.55;;;;;;;31.08;65.62;100769.34;5045724;28;70610;-42
2023/06/16 01:43:51;;;;;;;9.43;7.00;;;;;;;31.28;65.33;100800.81;5060933;28;66621;-39
2023/06/16 01:46:24;;;;;;;7.20;6.70;;;;;;;31.30;65.41;100804.13;5042663;28;70257;-41
2023/06/16 01:48:56;;;;;;;7.53;7.00;;;;;;;31.33;65.22;100804.50;5041279;28;66655;-41
2023/06/16 01:51:27;;;;;;;6.90;6.50;;;;;;;31.33;65.14;100798.25;5060405;28;70561;-41
2023/06/16 01:54:01;;;;;;;7.60;6.90;;;;;;;31.16;64.80;100766.34;5062570;28;66238;-39
2023/06/16 01:56:32;;;;;;;6.93;6.40;;;;;;;31.16;65.08;100777.16;5053225;28;69904;-41
2023/06/16 01:59:04;;;;;;;6.97;6.47;;;;;;;31.40;64.92;100815.31;5049647;28;66058;-45
2023/06/16 02:01:45;;;;;;;7.70;7.05;;;;;;;31.01;64.92;100749.63;5060563;28;69868;-43
2023/06/16 02:04:24;;;;;;;7.18;6.68;;;;;;;31.44;64.85;100819.22;5058212;28;66714;-42
2023/06/16 02:07:09;;;;;;;6.97;6.47;;;;;;;31.49;64.85;100818.56;5041569;28;69853;-41
2023/06/16 02:09:42;;;;;;;6.13;5.72;;;;;;;31.52;64.91;100829.75;5059049;28;66423;-41
2023/06/16 02:12:14;;;;;;;6.28;5.88;;;;;;;31.44;64.48;100800.25;5042751;28;70195;-40
2023/06/16 02:14:48;;;;;;;6.93;6.43;;;;;;;31.50;64.78;100812.88;5057299;28;64850;-39
2023/06/16 02:17:26;;;;;;;6.15;5.75;;;;;;;31.53;64.52;100809.72;5033999;28;69687;-40
2023/06/16 02:19:58;;;;;;;6.28;5.80;;;;;;;31.60;64.41;100821.34;5057851;28;65763;-40
2023/06/16 02:22:30;;;;;;;7.07;6.20;;;;;;;31.61;64.41;100817.56;5025020;28;70102;-43
2023/06/16 02:25:01;;;;;;;6.20;5.80;;;;;;;31.66;64.02;100826.91;5060191;28;65339;-40
2023/06/16 02:27:33;;;;;;;6.00;5.50;;;;;;;31.66;64.33;100810.63;5042728;28;69412;-40
2023/06/16 02:30:04;;;;;;;6.28;5.88;;;;;;;31.70;63.79;100814.53;5059935;28;65177;-42
2023/06/16 02:32:37;;;;;;;5.90;5.60;;;;;;;31.72;63.96;100812.44;5060403;28;70938;-41
2023/06/16 02:35:26;;;;;;;5.53;5.10;;;;;;;31.76;63.87;100813.63;5038965;28;66271;-43
2023/06/16 02:37:57;;;;;;;5.40;5.03;;;;;;;31.77;63.69;100805.28;5043553;28;69837;-40
2023/06/16 02:40:29;;;;;;;5.47;5.10;;;;;;;31.81;64.06;100811.06;5043106;28;65626;-41
2023/06/16 02:43:01;;;;;;;5.53;5.22;;;;;;;31.85;63.51;100809.56;5061220;28;70616;-41
2023/06/16 02:45:33;;;;;;;5.55;5.15;;;;;;;31.89;63.79;100807.22;5041752;28;66401;-40
2023/06/16 02:48:05;;;;;;;5.38;4.97;;;;;;;31.91;63.59;100796.97;5061570;28;69733;-42
2023/06/16 02:50:36;;;;;;;;;;;;;;;31.65;64.66;100795.41;5042233;28;66731;-42
2023/06/16 02:53:13;;;;;;;6.85;5.05;;;;;;;31.95;63.56;100795.47;5050322;28;70667;-44
2023/06/16 02:55:46;;;;;;;5.30;4.80;;;;;;;31.91;63.28;100778.81;5026633;28;66180;-40
2023/06/16 02:58:21;;;;;;;4.82;4.43;;;;;;;32.03;63.20;100792.44;5052801;28;69471;-41
2023/06/16 03:00:52;;;;;;;5.30;4.82;;;;;;;32.01;63.30;100780.97;5055239;28;65441;-41
2023/06/16 03:03:52;;;;;;;5.05;4.75;;;;;;;32.08;63.21;100786.31;5052188;28;70133;-43
2023/06/16 03:06:35;;;;;;;4.18;3.97;;;;;;;32.13;62.76;100781.03;5048322;28;65015;-43
2023/06/16 03:09:21;;;;;;;4.88;4.47;;;;;;;32.13;62.97;100775.63;5033705;28;69124;-41
2023/06/16 03:11:53;;;;;;;4.45;4.15;;;;;;;32.09;63.04;100767.09;5039861;28;66030;-40
2023/06/16 03:14:27;;;;;;;4.55;4.20;;;;;;;32.20;62.59;100782.56;5045605;28;69229;-43
2023/06/16 03:17:07;;;;;;;4.38;4.07;;;;;;;32.24;62.68;100780.25;5035057;28;66235;-48
2023/06/16 03:19:40;;;;;;;4.10;3.80;;;;;;;32.26;62.36;100765.38;5051991;28;70577;-43
2023/06/16 03:22:12;;;;;;;4.32;3.95;;;;;;;32.31;62.27;100761.13;5045394;28;66292;-40
2023/06/16 03:24:47;;;;;;;4.47;4.18;;;;;;;32.33;62.63;100761.72;5058582;28;70176;-42
2023/06/16 03:27:18;;;;;;;4.22;3.92;;;;;;;32.35;62.33;100744.16;5052185;28;66463;-44
2023/06/16 03:29:56;;;;;;;4.80;4.40;;;;;;;32.27;62.15;100730.91;5059694;28;70231;-41
2023/06/16 03:32:28;;;;;;;4.32;3.78;;;;;;;32.39;62.24;100748.03;5053051;28;66609;-40
2023/06/16 03:35:02;;;;;;;4.25;3.95;;;;;;;32.40;62.17;100743.44;5044008;28;69903;-44
2023/06/16 03:37:34;;;;;;;4.00;3.80;;;;;;;32.44;62.12;100734.59;5059976;28;66627;-42
2023/06/16 03:40:07;;;;;;;3.67;3.47;;;;;;;32.39;62.06;100731.75;5040817;28;70580;-41
2023/06/16 03:42:39;;;;;;;4.95;4.55;;;;;;;32.04;61.83;100672.84;5042948;28;66475;-42
2023/06/16 03:45:12;;;;;;;4.07;3.78;;;;;;;32.44;61.75;100718.31;5057885;28;70297;-42
2023/06/16 03:47:44;;;;;;;4.30;3.92;;;;;;;32.50;61.66;100727.44;5025778;28;65358;-42
2023/06/16 03:50:16;;;;;;;4.90;4.43;;;;;;;32.52;61.77;100733.47;5040727;28;70216;-42
2023/06/16 03:52:48;;;;;;;3.97;3.67;;;;;;;32.46;61.48;100712.69;5042463;28;66333;-40
2023/06/16 03:55:39;;;;;;;3.95;3.65;;;;;;;32.42;61.55;100698.69;5034306;28;69619;-42
2023/06/16 03:58:15;;;;;;;3.85;3.50;;;;;;;32.54;61.61;100722.34;5042566;28;65762;-40
2023/06/16 04:00:46;;;;;;;3.97;3.58;;;;;;;32.42;61.53;100692.44;5040529;28;70546;-39
2023/06/16 04:03:19;;;;;;;4.10;3.80;;;;;;;32.60;61.55;100716.00;5049600;28;66380;-41
2023/06/16 04:05:51;;;;;;;4.18;3.88;;;;;;;32.55;61.45;100713.16;5058367;28;70316;-41
2023/06/16 04:08:22;;;;;;;4.57;4.28;;;;;;;32.60;61.53;100705.94;5059944;28;65529;-42
2023/06/16 04:10:57;;;;;;;4.40;4.00;;;;;;;32.60;61.26;100716.00;5041553;28;70071;-43
2023/06/16 04:13:30;;;;;;;4.95;3.92;;;;;;;32.65;61.40;100697.94;5050243;28;66700;-43
2023/06/16 04:16:08;;;;;;;4.10;3.80;;;;;;;32.68;61.37;100691.16;5033464;28;70740;-42
2023/06/16 04:18:39;;;;;;;4.55;3.17;;;;;;;32.69;61.32;100688.22;5038072;28;65394;-41
2023/06/16 04:21:11;;;;;;;3.73;3.43;;;;;;;32.69;61.24;100679.25;5064797;28;69546;-41
2023/06/16 04:23:42;;;;;;;3.42;3.22;;;;;;;32.72;61.27;100676.06;5047114;28;66702;-42
2023/06/16 04:26:21;;;;;;;3.80;3.28;;;;;;;32.11;61.21;100576.91;5038943;28;69321;-40
2023/06/16 04:28:55;;;;;;;3.78;3.58;;;;;;;32.71;61.09;100669.81;5040708;28;66345;-43
2023/06/16 04:31:35;;;;;;;4.38;4.03;;;;;;;32.74;61.16;100663.09;5055807;28;70337;-41
2023/06/16 04:34:07;;;;;;;5.10;3.67;;;;;;;32.67;61.28;100651.50;5038999;28;66618;-39
2023/06/16 04:36:44;;;;;;;3.90;3.70;;;;;;;32.63;61.23;100640.31;5043181;28;70438;-42
2023/06/16 04:39:30;;;;;;;3.70;3.40;;;;;;;32.62;61.17;100635.91;5034757;28;65530;-39
2023/06/16 04:42:04;;;;;;;3.83;3.38;;;;;;;32.78;61.15;100653.38;5052894;28;69890;-43
2023/06/16 04:44:36;;;;;;;3.63;3.13;;;;;;;32.82;61.39;100660.00;5041876;28;66437;-41
2023/06/16 04:47:09;;;;;;;3.42;3.20;;;;;;;32.83;61.07;100645.34;5037862;28;69736;-41
2023/06/16 04:49:41;;;;;;;3.50;3.20;;;;;;;32.85;60.83;100659.53;5026962;28;65940;-41
2023/06/16 04:52:13;;;;;;;3.88;3.47;;;;;;;32.20;61.02;100551.06;5063682;28;70021;-41
2023/06/16 04:54:45;;;;;;;3.60;3.30;;;;;;;32.86;61.12;100654.91;5060692;28;66796;-40
2023/06/16 04:57:17;;;;;;;4.57;2.97;;;;;;;32.84;61.15;100627.97;5055628;28;70347;-41
2023/06/16 04:59:48;;;;;;;3.03;2.83;;;;;;;32.91;60.97;100631.38;5068719;28;65829;-39
2023/06/16 05:02:21;;;;;;;3.22;3.03;;;;;;;32.80;60.77;100596.94;5057233;28;70131;-39
2023/06/16 05:04:56;;;;;;;3.08;2.88;;;;;;;32.91;60.80;100604.22;5046452;28;66881;-42
2023/06/16 05:07:27;;;;;;;3.80;3.45;;;;;;;32.84;60.69;100583.69;5056672;28;69746;-39
2023/06/16 05:09:59;;;;;;;3.35;3.15;;;;;;;32.93;60.65;100598.53;5062825;28;65298;-40
2023/06/16 05:12:32;;;;;;;3.30;3.00;;;;;;;33.04;60.66;100610.47;5035722;28;69698;-41
2023/06/16 05:15:04;;;;;;;3.00;2.80;;;;;;;32.96;60.88;100589.91;5045981;28;66134;-43
2023/06/16 05:17:36;;;;;;;;;;;;;;;32.78;61.09;100599.06;5067600;28;69632;-41
2023/06/16 05:20:10;;;;;;;3.17;2.95;;;;;;;32.89;60.53;100564.78;5045181;28;65781;-42
2023/06/16 05:22:43;;;;;;;3.05;2.85;;;;;;;32.92;60.60;100551.53;5045027;28;70353;-40
2023/06/16 05:25:14;;;;;;;3.13;2.92;;;;;;;33.09;60.58;100588.81;5044640;28;66663;-40
2023/06/16 05:27:46;;;;;;;3.22;3.03;;;;;;;33.10;60.16;100585.06;5059909;28;70641;-39
2023/06/16 05:30:17;;;;;;;;;;;;;;;32.86;61.00;100584.28;5052123;28;65470;-41
2023/06/16 05:32:49;;;;;;;2.92;2.72;;;;;;;33.11;60.57;100586.69;5059216;28;70137;-41
2023/06/16 05:35:20;;;;;;;;;;;;;;;32.87;60.99;100586.72;5059542;28;66611;-40
2023/06/16 05:37:52;;;;;;;2.70;2.50;;;;;;;33.17;60.38;100584.91;5044191;28;69262;-40
2023/06/16 05:40:23;;;;;;;;;;;;;;;32.90;60.83;100575.41;5059991;28;66589;-41
2023/06/16 05:42:55;;;;;;;3.28;3.03;;;;;;;33.13;60.36;100560.09;5046752;28;70199;-42
2023/06/16 05:45:26;;;;;;;3.97;2.90;;;;;;;33.14;59.85;100548.16;5062025;28;66728;-40
2023/06/16 05:47:58;;;;;;;;;;;;;;;32.95;60.42;100555.66;5060800;28;70359;-44
2023/06/16 05:50:30;;;;;;;3.83;2.85;;;;;;;33.21;60.01;100556.16;5034399;28;65992;-42
2023/06/16 05:53:04;;;;;;;4.30;2.90;;;;;;;33.25;60.24;100554.59;5044091;28;70139;-40
2023/06/16 05:55:36;;;;;;;2.47;2.28;;;;;;;33.31;59.44;100538.13;5041678;28;66678;-41
2023/06/16 05:58:07;;;;;;;3.00;2.80;;;;;;;33.35;59.77;100560.25;5060921;28;70438;-42
2023/06/16 06:00:39;;;;;;;3.00;2.80;;;;;;;33.35;59.73;100552.91;5024930;28;65817;-40
2023/06/16 06:03:16;;;;;;;2.83;2.63;;;;;;;33.36;59.62;100540.94;5040731;28;69806;-40
2023/06/16 06:05:49;;;;;;;2.80;2.60;;;;;;;33.42;59.63;100536.41;5036904;28;66545;-43
2023/06/16 06:08:22;;;;;;;2.90;2.70;;;;;;;33.32;59.71;100520.78;5055337;28;69478;-42
2023/06/16 06:10:55;;;;;;;2.72;2.53;;;;;;;33.35;59.45;100517.56;5062982;28;66540;-43
2023/06/16 06:13:29;;;;;;;3.03;2.70;;;;;;;33.35;59.47;100512.13;5042374;28;70113;-41
2023/06/16 06:16:02;;;;;;;2.58;2.30;;;;;;;32.77;59.33;100409.19;5061679;28;65695;-40
2023/06/16 06:18:34;;;;;;;2.83;2.63;;;;;;;33.44;59.81;100514.44;5040400;28;70312;-41
2023/06/16 06:21:06;;;;;;;3.28;2.33;;;;;;;33.49;59.32;100518.06;5056262;28;66046;-44
2023/06/16 06:23:38;;;;;;;3.10;2.90;;;;;;;33.54;59.38;100520.06;5036714;28;70234;-42
2023/06/16 06:26:10;;;;;;;3.00;2.70;;;;;;;33.47;59.38;100498.44;5060398;28;66525;-44
2023/06/16 06:28:41;;;;;;;2.67;2.47;;;;;;;33.53;59.20;100500.19;5042376;28;69743;-45
2023/06/16 06:31:13;;;;;;;5.60;2.60;;;;;;;33.59;59.24;100506.53;5042353;28;65856;-43
2023/06/16 06:33:45;;;;;;;2.53;2.33;;;;;;;33.46;59.26;100474.22;5043614;28;69327;-41
2023/06/16 06:36:27;;;;;;;2.83;2.58;;;;;;;33.58;58.70;100494.03;5060578;28;66072;-41
2023/06/16 06:39:01;;;;;;;5.68;2.42;;;;;;;33.50;59.00;100472.66;5042774;28;70317;-42
2023/06/16 06:41:32;;;;;;;3.13;2.60;;;;;;;33.41;58.92;100449.69;5046138;28;66151;-42
2023/06/16 06:44:12;;;;;;;3.00;2.70;;;;;;;33.65;59.14;100482.97;5041929;28;70275;-42
2023/06/16 06:46:51;;;;;;;3.30;3.00;;;;;;;33.58;58.72;100456.78;5046459;28;66745;-39
2023/06/16 06:49:23;;;;;;;2.47;2.28;;;;;;;33.69;58.95;100463.19;5059389;28;70508;-39
2023/06/16 06:51:54;;;;;;;2.33;2.13;;;;;;;33.71;58.91;100461.06;5062603;28;66538;-42
2023/06/16 06:54:25;;;;;;;2.83;2.63;;;;;;;33.69;58.84;100457.75;5062152;28;70752;-41
2023/06/16 06:56:57;;;;;;;3.17;2.87;;;;;;;33.74;59.03;100454.25;5061234;28;66299;-41
2023/06/16 06:59:28;;;;;;;2.60;2.40;;;;;;;33.50;59.00;100394.63;5060815;28;70061;-40
2023/06/16 07:01:59;;;;;;;4.82;2.40;;;;;;;33.38;58.67;100375.69;5060697;28;66967;-41
2023/06/16 07:04:31;;;;;;;2.60;2.40;;;;;;;33.79;58.65;100436.16;5061656;28;70143;-42
2023/06/16 07:07:03;;;;;;;2.80;2.47;;;;;;;33.24;58.65;100352.66;5059840;28;65192;-42
2023/06/16 07:09:35;;;;;;;2.92;2.72;;;;;;;33.70;58.72;100426.75;5060365;28;70636;-42
2023/06/16 07:12:07;;;;;;;2.67;2.47;;;;;;;33.87;58.54;100442.22;5060329;28;65909;-40
2023/06/16 07:14:39;;;;;;;3.50;2.58;;;;;;;33.88;58.79;100449.28;5059376;28;70081;-39
2023/06/16 07:17:10;;;;;;;4.05;2.35;;;;;;;33.73;58.34;100423.53;5071129;28;66033;-42
2023/06/16 07:19:41;;;;;;;3.03;2.78;;;;;;;33.86;58.65;100440.56;5062093;28;69708;-41
2023/06/16 07:22:13;;;;;;;3.10;2.67;;;;;;;33.89;58.22;100440.06;5059642;28;65985;-40
2023/06/16 07:24:44;;;;;;;3.58;2.60;;;;;;;33.94;58.54;100448.31;5059153;28;69212;-40
2023/06/16 07:27:15;;;;;;;3.05;2.78;;;;;;;33.94;58.44;100438.25;5062486;28;66101;-41
2023/06/16 07:29:47;;;;;;;2.47;2.33;;;;;;;33.96;58.59;100429.81;5061018;28;69814;-40
2023/06/16 07:32:18;;;;;;;2.72;2.53;;;;;;;33.97;58.37;100426.84;5062072;28;65408;-41
2023/06/16 07:34:49;;;;;;;3.20;2.90;;;;;;;33.93;58.15;100409.38;5058623;28;70115;-40
2023/06/16 07:37:21;;;;;;;2.83;2.63;;;;;;;33.97;58.20;100402.34;5060567;28;66342;-41
2023/06/16 07:39:52;;;;;;;3.30;3.08;;;;;;;34.01;58.14;100400.75;5062051;28;70155;-41
2023/06/16 07:42:24;;;;;;;3.17;2.88;;;;;;;34.00;58.26;100387.41;5059629;28;66241;-41
2023/06/16 07:44:55;;;;;;;3.03;2.53;;;;;;;34.05;58.17;100394.88;5062890;28;69792;-44
2023/06/16 07:47:26;;;;;;;2.75;2.55;;;;;;;34.06;58.17;100397.31;5059799;28;65499;-42
2023/06/16 07:49:58;;;;;;;2.70;2.50;;;;;;;34.08;57.94;100388.91;5059531;28;70156;-43
2023/06/16 07:52:29;;;;;;;3.15;2.85;;;;;;;34.07;58.20;100387.25;5060013;28;66189;-42
2023/06/16 07:55:01;;;;;;;3.00;2.70;;;;;;;34.11;57.90;100386.50;5061271;28;69859;-43
2023/06/16 07:57:33;;;;;;;8.57;2.90;;;;;;;34.07;57.86;100379.91;5061043;28;66903;-42
2023/06/16 08:00:07;;;;;;;2.63;2.42;;;;;;;34.15;58.09;100378.63;5061434;28;70347;-41
2023/06/16 08:02:43;;;;;;;3.33;2.70;;;;;;;34.09;57.74;100357.88;5050339;28;66354;-42
2023/06/16 08:05:18;;;;;;;3.53;2.58;;;;;;;34.14;57.56;100361.50;5061385;28;70282;-41
2023/06/16 08:07:49;;;;;;;3.35;2.55;;;;;;;34.18;57.65;100368.06;5043159;28;66205;-43
2023/06/16 08:10:20;;;;;;;;;;;;;;;33.88;58.10;100364.94;5059249;28;70351;-43
2023/06/16 08:12:52;;;;;;;2.75;2.55;;;;;;;34.14;57.89;100358.78;5059912;28;66098;-43
2023/06/16 08:15:23;;;;;;;2.63;2.42;;;;;;;34.17;57.88;100362.88;5064487;28;70026;-44
2023/06/16 08:17:55;;;;;;;2.70;2.50;;;;;;;33.99;57.75;100320.44;5064277;28;65815;-42
2023/06/16 08:20:25;;;;;;;;;;;;;;;33.92;58.20;100352.50;5060092;28;70426;-40
2023/06/16 08:22:56;;;;;;;4.25;2.80;;;;;;;34.19;57.82;100353.38;5058931;28;65918;-40
2023/06/16 08:25:28;;;;;;;2.70;2.50;;;;;;;34.22;57.90;100346.63;5058241;28;69208;-42
2023/06/16 08:28:00;;;;;;;2.90;2.60;;;;;;;34.23;57.70;100343.63;5059412;28;66196;-41
2023/06/16 08:30:31;;;;;;;3.00;2.78;;;;;;;34.23;57.78;100337.34;5059375;28;70030;-42
2023/06/16 08:33:04;;;;;;;2.42;2.22;;;;;;;34.25;57.92;100330.56;5063561;28;66246;-42
2023/06/16 08:35:36;;;;;;;4.00;2.22;;;;;;;34.28;57.76;100344.75;5039127;28;70208;-39
2023/06/16 08:38:07;;;;;;;4.75;2.50;;;;;;;34.21;57.95;100339.50;5033303;28;65815;-41
2023/06/16 08:40:38;;;;;;;2.85;2.65;;;;;;;34.10;57.46;100315.97;5057394;28;69208;-41
2023/06/16 08:43:13;;;;;;;3.25;2.95;;;;;;;34.24;57.62;100339.84;5040262;28;66137;-42
2023/06/16 08:45:46;;;;;;;2.95;2.65;;;;;;;34.17;57.19;100333.75;5057176;28;70080;-40
2023/06/16 08:48:17;;;;;;;3.22;2.92;;;;;;;34.27;57.33;100343.94;5058862;28;66174;-42
2023/06/16 08:50:49;;;;;;;;;;;;;;;34.02;57.85;100363.50;5057513;28;70217;-40
2023/06/16 08:53:22;;;;;;;3.65;3.30;;;;;;;34.12;57.52;100330.97;5060553;28;66317;-39
2023/06/16 08:55:54;;;;;;;4.20;3.47;;;;;;;34.32;57.77;100362.22;5057025;28;69423;-42
2023/06/16 08:58:27;;;;;;;3.67;3.38;;;;;;;34.19;57.68;100337.06;5057333;28;66351;-40
2023/06/16 09:01:04;;;;;;;4.20;3.85;;;;;;;33.64;57.29;100253.69;5059751;28;70574;-41
2023/06/16 09:03:37;;;;;;;4.45;3.58;;;;;;;34.34;57.44;100346.44;5055059;28;65621;-42
2023/06/16 09:06:10;;;;;;;4.22;3.92;;;;;;;34.29;57.94;100324.63;5040906;28;69992;-41
2023/06/16 09:08:41;;;;;;;3.92;3.63;;;;;;;34.26;57.40;100321.31;5050277;28;65413;-40
2023/06/16 09:11:20;;;;;;;4.35;4.05;;;;;;;34.31;57.87;100333.34;5035721;28;69981;-43
2023/06/16 09:13:52;;;;;;;5.50;4.25;;;;;;;34.35;57.82;100335.31;5058371;28;65560;-41
2023/06/16 09:16:24;;;;;;;4.50;4.10;;;;;;;34.37;57.89;100343.22;5058818;28;70537;-41
2023/06/16 09:19:06;;;;;;;4.43;4.03;;;;;;;34.31;57.64;100344.25;5054448;28;66595;-40
2023/06/16 09:21:38;;;;;;;4.03;3.72;;;;;;;34.28;57.97;100345.56;5049559;28;70381;-41
2023/06/16 09:24:14;;;;;;;4.47;4.18;;;;;;;34.31;57.63;100355.13;5041522;28;66074;-40
2023/06/16 09:26:46;;;;;;;4.20;3.85;;;;;;;33.94;57.67;100298.66;5058222;28;70435;-40
2023/06/16 09:29:25;;;;;;;4.80;4.40;;;;;;;34.38;57.89;100377.53;5058333;28;66757;-42
2023/06/16 09:32:10;;;;;;;4.90;4.50;;;;;;;33.66;57.58;100262.44;5058097;28;69824;-40
2023/06/16 09:34:43;;;;;;;5.90;5.20;;;;;;;34.37;57.46;100365.00;5054779;28;66373;-41
2023/06/16 09:37:20;;;;;;;5.70;5.30;;;;;;;33.98;57.51;100303.31;5060308;28;70514;-42
2023/06/16 09:39:51;;;;;;;9.32;5.68;;;;;;;34.37;57.70;100365.81;5061330;28;66295;-41
2023/06/16 09:42:27;;;;;;;7.85;5.43;;;;;;;33.70;57.50;100260.81;5060678;28;70514;-41
2023/06/16 09:44:58;;;;;;;6.90;5.93;;;;;;;34.31;57.55;100360.59;5062554;28;66587;-43
2023/06/16 09:47:30;;;;;;;6.47;5.82;;;;;;;34.35;57.72;100365.28;5060447;28;69482;-41
2023/06/16 09:50:01;;;;;;;6.85;6.25;;;;;;;34.36;57.86;100368.81;5060649;28;66100;-42
2023/06/16 09:52:36;;;;;;;;;;;;;;;34.06;58.53;100364.66;5058194;28;70153;-42
2023/06/16 09:55:08;;;;;;;7.00;6.20;;;;;;;34.31;57.68;100366.84;5057635;28;66596;-42
2023/06/16 09:57:43;;;;;;;6.80;6.20;;;;;;;34.26;57.57;100340.38;5059476;28;69869;-42
2023/06/16 10:00:18;;;;;;;9.75;6.85;;;;;;;33.77;58.25;100275.06;5061388;28;65684;-43
2023/06/16 10:02:51;;;;;;;6.47;5.93;;;;;;;34.34;57.72;100354.63;5061163;28;69467;-44
2023/06/16 10:05:24;;;;;;;6.65;6.25;;;;;;;34.23;57.90;100338.16;5056853;28;66499;-45
2023/06/16 10:07:59;;;;;;;7.03;6.53;;;;;;;34.12;57.79;100328.25;5056685;28;70021;-44
2023/06/16 10:10:33;;;;;;;10.07;6.15;;;;;;;33.70;58.09;100268.97;5058059;28;66959;-44
2023/06/16 10:13:09;;;;;;;20.90;8.10;;;;;;;34.14;59.72;100356.03;5057254;28;69323;-40
2023/06/16 10:15:42;;;;;;;11.93;10.70;;;;;;;33.88;60.79;100332.28;5054162;28;67176;-42
2023/06/16 10:18:17;;;;;;;18.60;13.98;;;;;;;33.39;60.88;100267.75;5055627;28;70045;-44
2023/06/16 10:20:48;;;;;;;25.55;17.00;;;;;;;33.93;61.26;100370.44;5053932;28;66439;-39
2023/06/16 10:23:20;;;;;;;37.38;26.05;;;;;;;33.88;61.73;100389.44;5056131;28;69639;-42
2023/06/16 10:25:51;;;;;;;40.97;26.38;;;;;;;33.83;61.87;100395.66;5055761;28;66416;-52
2023/06/16 10:28:23;;;;;;;50.42;30.90;;;;;;;33.75;62.35;100394.19;5055381;28;69398;-40
2023/06/16 10:30:56;;;;;;;53.22;31.40;;;;;;;33.70;62.54;100394.09;5056774;28;65578;-44
2023/06/16 10:33:28;;;;;;;49.97;34.15;;;;;;;33.73;62.92;100404.47;5055502;28;69978;-41
2023/06/16 10:36:02;;;;;;;57.22;36.05;;;;;;;33.21;62.80;100322.41;5054347;28;66422;-42
2023/06/16 10:38:40;;;;;;;67.32;39.25;;;;;;;33.68;63.01;100404.41;5056192;28;69390;-41
2023/06/16 10:41:14;;;;;;;63.50;39.05;;;;;;;33.51;63.42;100384.56;5056001;28;66156;-42
2023/06/16 10:43:45;;;;;;;63.65;40.45;;;;;;;33.24;63.49;100341.78;5061255;28;70721;-41
2023/06/16 10:46:18;;;;;;;62.10;39.47;;;;;;;33.57;63.45;100395.31;5042095;28;66716;-43
2023/06/16 10:48:57;;;;;;;69.75;43.92;;;;;;;33.44;63.40;100384.75;5060611;28;70156;-43
2023/06/16 10:51:52;;;;;;;69.30;42.83;;;;;;;33.58;63.57;100417.88;5059108;28;65653;-41
2023/06/16 10:54:32;;;;;;;63.78;39.53;;;;;;;33.58;63.89;100423.31;5057884;28;69997;-40
2023/06/16 10:57:08;;;;;;;70.82;44.42;;;;;;;33.11;64.03;100353.81;5058815;28;66724;-43
2023/06/16 11:00:10;;;;;;;62.65;40.90;;;;;;;33.54;63.93;100428.44;5055965;28;70026;-43
2023/06/16 11:02:54;;;;;;;69.22;42.47;;;;;;;33.19;64.16;100377.03;5054192;28;66291;-44
2023/06/16 11:05:46;;;;;;;65.93;42.60;;;;;;;33.44;64.10;100427.44;5054500;28;69614;-41
2023/06/16 11:08:18;;;;;;;66.88;40.78;;;;;;;33.54;64.45;100455.63;5055219;28;66696;-43
2023/06/16 11:10:50;;;;;;;;;;;;;;;33.36;64.86;100459.38;5056430;28;70590;-41
2023/06/16 11:13:26;;;;;;;68.82;43.00;;;;;;;33.48;64.76;100458.47;5055564;28;65971;-41
2023/06/16 11:16:00;;;;;;;73.38;45.65;;;;;;;33.49;64.88;100465.56;5057605;28;70753;-41
2023/06/16 11:18:41;;;;;;;69.28;43.92;;;;;;;33.37;65.04;100452.03;5052639;28;65592;-41
2023/06/16 11:21:13;;;;;;;62.55;41.00;;;;;;;33.41;65.11;100474.16;5056703;28;70060;-42
2023/06/16 11:23:45;;;;;;;63.30;40.92;;;;;;;33.47;65.21;100493.00;5055747;28;66615;-41
2023/06/16 11:26:18;;;;;;;61.47;39.30;;;;;;;33.48;65.02;100493.81;5054818;28;70423;-41
2023/06/16 11:28:52;;;;;;;58.13;39.03;;;;;;;33.47;65.30;100513.94;5055877;28;65494;-39
2023/06/16 11:31:23;;;;;;;64.00;39.30;;;;;;;33.44;65.43;100517.97;5054371;28;69764;-42
2023/06/16 11:33:55;;;;;;;62.22;38.75;;;;;;;33.15;65.42;100487.28;5056419;28;66129;-43
2023/06/16 11:36:26;;;;;;;55.65;36.22;;;;;;;33.41;65.54;100550.28;5038134;28;70027;-42
2023/06/16 11:39:00;;;;;;;55.30;36.33;;;;;;;33.28;65.81;100549.50;5056736;28;67018;-43
2023/06/16 11:41:31;;;;;;;50.45;35.83;;;;;;;33.25;65.40;100549.19;5050069;28;70392;-43
2023/06/16 11:44:03;;;;;;;44.55;31.40;;;;;;;33.20;65.45;100541.75;5056398;28;66749;-42
2023/06/16 11:46:35;;;;;;;45.42;30.75;;;;;;;33.34;65.02;100572.97;5055823;28;69783;-40
2023/06/16 11:49:07;;;;;;;40.33;28.48;;;;;;;33.38;65.18;100584.22;5055990;28;65423;-43
2023/06/16 11:51:38;;;;;;;38.43;26.13;;;;;;;33.33;64.77;100581.41;5053806;28;69830;-40
2023/06/16 11:54:09;;;;;;;;;;;;;;;33.19;65.07;100594.47;5057851;28;65366;-43